createdAt,value
2022-08-16T00:01:11.582Z,96236.13
2022-08-16T00:03:38.858Z,96233.72
2022-08-16T00:06:07.774Z,96244.16
2022-08-16T00:08:37.798Z,96240.63
2022-08-16T00:11:06.901Z,96242.97
2022-08-16T00:13:41.904Z,96243.94
2022-08-16T00:17:00.528Z,96253.78
2022-08-16T00:18:56.310Z,96259.81
2022-08-16T00:21:26.601Z,96259.66
2022-08-16T00:23:56.053Z,96253.97
2022-08-16T00:26:35.609Z,96247.69
2022-08-16T00:29:05.571Z,96254.03
2022-08-16T00:31:59.921Z,96250.44
2022-08-16T00:34:22.852Z,96254.78
2022-08-16T00:37:10.129Z,96253.22
2022-08-16T00:39:36.768Z,96254.94
2022-08-16T00:42:05.697Z,96255.03
2022-08-16T00:44:38.566Z,96247.59
2022-08-16T00:47:12.393Z,96253.03
2022-08-16T00:49:44.880Z,96250.94
2022-08-16T00:52:30.135Z,96251.91
2022-08-16T00:54:59.354Z,96244.97
2022-08-16T00:57:27.613Z,96250.25
2022-08-16T01:00:19.940Z,96257.31
2022-08-16T01:02:48.998Z,96255.47
2022-08-16T01:05:16.075Z,96262.91
2022-08-16T01:07:51.580Z,96259.72
2022-08-16T01:10:32.331Z,96261.97
2022-08-16T01:13:27.797Z,96267.03
2022-08-16T01:16:02.910Z,96268.22
2022-08-16T01:18:59.730Z,96266.13
2022-08-16T01:21:33.728Z,96269.94
2022-08-16T01:24:52.251Z,96276.31
2022-08-16T01:27:18.996Z,96278.19
2022-08-16T01:29:59.899Z,96281.41
2022-08-16T01:32:33.615Z,96290.38
2022-08-16T01:35:17.675Z,96287.88
2022-08-16T01:37:53.009Z,96280.41
2022-08-16T01:40:25.294Z,96283.78
2022-08-16T01:42:55.340Z,96286.66
2022-08-16T01:45:23.061Z,96281.41
2022-08-16T01:47:51.813Z,96288.94
2022-08-16T01:50:42.184Z,96288.81
2022-08-16T01:53:10.051Z,96282.56
2022-08-16T01:55:40.639Z,96291.41
2022-08-16T01:58:07.517Z,96300.28
2022-08-16T02:00:37.514Z,96302.25
2022-08-16T02:03:05.604Z,96294.97
2022-08-16T02:05:32.266Z,96291.03
2022-08-16T02:08:02.217Z,96286.69
2022-08-16T02:10:28.819Z,96291.19
2022-08-16T02:13:00.601Z,96300.56
2022-08-16T02:15:29.549Z,96301.03
2022-08-16T02:17:59.161Z,96298.84
2022-08-16T02:20:32.167Z,96302.44
2022-08-16T02:23:01.659Z,96305.44
2022-08-16T02:25:47.472Z,96300.13
2022-08-16T02:28:19.268Z,96296.56
2022-08-16T02:30:50.942Z,96297.72
2022-08-16T02:33:20.091Z,96293.19
2022-08-16T02:35:58.460Z,96310.66
2022-08-16T02:38:28.946Z,96308.91
2022-08-16T02:40:59.040Z,96312.91
2022-08-16T02:43:27.941Z,96311.84
2022-08-16T02:45:55.941Z,96304.22
2022-08-16T02:48:29.668Z,96303.81
2022-08-16T02:51:06.497Z,96304.59
2022-08-16T02:53:43.161Z,96303.13
2022-08-16T02:56:14.851Z,96306.69
2022-08-16T02:58:44.157Z,96302.66
2022-08-16T03:01:25.239Z,96289.84
2022-08-16T03:04:39.497Z,96296.78
2022-08-16T03:06:50.478Z,96296.53
2022-08-16T03:09:22.719Z,96304.50
2022-08-16T03:11:49.421Z,96310.75
2022-08-16T03:14:21.082Z,96298.97
2022-08-16T03:16:59.664Z,96296.09
2022-08-16T03:19:46.815Z,96292.16
2022-08-16T03:22:19.431Z,96289.50
2022-08-16T03:25:01.590Z,96290.09
2022-08-16T03:27:31.170Z,96284.53
2022-08-16T03:30:16.556Z,96298.53
2022-08-16T03:32:51.398Z,96290.69
2022-08-16T03:35:20.524Z,96293.44
2022-08-16T03:38:02.830Z,96295.28
2022-08-16T03:40:33.197Z,96293.53
2022-08-16T03:43:20.281Z,96289.72
2022-08-16T03:45:47.642Z,96300.81
2022-08-16T03:48:14.885Z,96300.59
2022-08-16T03:50:41.851Z,96295.63
2022-08-16T03:53:27.054Z,96288.91
2022-08-16T03:56:07.477Z,96298.97
2022-08-16T03:58:36.907Z,96295.25
2022-08-16T04:01:05.205Z,96308.25
2022-08-16T04:03:32.213Z,96301.47
2022-08-16T04:05:59.767Z,96315.53
2022-08-16T04:08:31.290Z,96306.66
2022-08-16T04:11:01.919Z,96308.16
2022-08-16T04:14:00.856Z,96317.22
2022-08-16T04:16:26.550Z,96316.66
2022-08-16T04:19:01.209Z,96321.19
2022-08-16T04:21:33.639Z,96320.50
2022-08-16T04:24:02.760Z,96329.19
2022-08-16T04:26:30.878Z,96329.69
2022-08-16T04:29:16.621Z,96329.75
2022-08-16T04:31:56.269Z,96337.94
2022-08-16T04:34:28.083Z,96335.56
2022-08-16T04:36:56.708Z,96342.78
2022-08-16T04:39:37.010Z,96343.06
2022-08-16T04:42:17.679Z,96342.31
2022-08-16T04:44:54.647Z,96346.75
2022-08-16T04:47:31.740Z,96343.69
2022-08-16T04:50:00.028Z,96348.50
2022-08-16T04:52:34.009Z,96348.03
2022-08-16T04:55:15.307Z,96348.84
2022-08-16T04:57:42.989Z,96352.16
2022-08-16T05:00:32.867Z,96353.94
2022-08-16T05:03:07.496Z,96353.72
2022-08-16T05:05:55.258Z,96344.47
2022-08-16T05:08:29.720Z,96355.97
2022-08-16T05:11:05.275Z,96349.88
2022-08-16T05:13:40.523Z,96339.03
2022-08-16T05:16:16.683Z,96341.91
2022-08-16T05:18:50.167Z,96345.66
2022-08-16T05:21:16.949Z,96336.41
2022-08-16T05:23:55.451Z,96336.34
2022-08-16T05:26:27.829Z,96336.31
2022-08-16T05:28:56.569Z,96345.19
2022-08-16T05:31:29.655Z,96348.38
2022-08-16T05:34:00.449Z,96341.00
2022-08-16T05:36:33.602Z,96349.31
2022-08-16T05:39:02.472Z,96344.47
2022-08-16T05:41:29.292Z,96347.41
2022-08-16T05:44:01.252Z,96360.63
2022-08-16T05:46:33.077Z,96365.88
2022-08-16T05:49:09.073Z,96357.31
2022-08-16T05:51:40.295Z,96351.31
2022-08-16T05:54:11.579Z,96361.69
2022-08-16T05:56:42.828Z,96362.91
2022-08-16T05:59:10.683Z,96365.22
2022-08-16T06:01:39.066Z,96373.19
2022-08-16T06:04:13.459Z,96366.56
2022-08-16T06:06:56.575Z,96357.63
2022-08-16T06:09:25.930Z,96366.97
2022-08-16T06:12:10.354Z,96359.47
2022-08-16T06:14:37.792Z,96364.44
2022-08-16T06:17:07.253Z,96357.88
2022-08-16T06:19:34.016Z,96355.78
2022-08-16T06:22:02.586Z,96355.84
2022-08-16T06:24:54.375Z,96356.03
2022-08-16T06:27:16.154Z,96350.47
2022-08-16T06:29:44.734Z,96350.00
2022-08-16T06:32:27.747Z,96355.63
2022-08-16T06:35:02.602Z,96353.38
2022-08-16T06:37:37.417Z,96362.97
2022-08-16T06:40:12.417Z,96363.69
2022-08-16T06:42:47.514Z,96362.69
2022-08-16T06:45:15.326Z,96358.78
2022-08-16T06:47:53.830Z,96354.25
2022-08-16T06:50:28.746Z,96353.09
2022-08-16T06:53:00.718Z,96358.47
2022-08-16T06:55:33.763Z,96358.66
2022-08-16T06:58:01.660Z,96356.66
2022-08-16T07:00:34.926Z,96359.03
2022-08-16T07:03:26.934Z,96363.41
2022-08-16T07:05:53.925Z,96366.22
2022-08-16T07:08:21.050Z,96358.06
2022-08-16T07:10:48.023Z,96363.50
2022-08-16T07:13:26.681Z,96369.34
2022-08-16T07:16:03.170Z,96359.91
2022-08-16T07:18:29.871Z,96364.91
2022-08-16T07:21:01.834Z,96357.78
2022-08-16T07:23:37.426Z,96350.66
2022-08-16T07:26:10.045Z,96354.59
2022-08-16T07:28:38.933Z,96353.28
2022-08-16T07:31:13.063Z,96356.03
2022-08-16T07:33:51.502Z,96344.81
2022-08-16T07:36:21.863Z,96341.88
2022-08-16T07:38:49.342Z,96344.28
2022-08-16T07:41:17.207Z,96351.28
2022-08-16T07:43:44.197Z,96354.06
2022-08-16T07:46:39.013Z,96348.38
2022-08-16T07:49:02.558Z,96344.88
2022-08-16T07:51:33.160Z,96352.38
2022-08-16T07:54:09.370Z,96356.88
2022-08-16T07:56:38.183Z,96367.97
2022-08-16T07:59:06.863Z,96365.16
2022-08-16T08:01:34.757Z,96361.94
2022-08-16T08:04:03.868Z,96358.13
2022-08-16T08:06:32.885Z,96363.50
2022-08-16T08:09:00.425Z,96362.09
2022-08-16T08:11:29.178Z,96363.38
2022-08-16T08:14:03.149Z,96364.53
2022-08-16T08:16:32.096Z,96358.09
2022-08-16T08:19:02.399Z,96360.75
2022-08-16T08:21:58.373Z,96353.63
2022-08-16T08:24:20.921Z,96352.19
2022-08-16T08:26:50.007Z,96351.06
2022-08-16T08:29:22.641Z,96364.22
2022-08-16T08:31:49.908Z,96363.19
2022-08-16T08:34:18.674Z,96364.97
2022-08-16T08:36:45.379Z,96358.31
2022-08-16T08:39:12.926Z,96365.19
2022-08-16T08:41:42.308Z,96369.47
2022-08-16T08:44:27.971Z,96361.63
2022-08-16T08:47:00.605Z,96358.72
2022-08-16T08:49:46.258Z,96357.19
2022-08-16T08:52:34.775Z,96361.44
2022-08-16T08:55:10.318Z,96359.06
2022-08-16T08:57:37.811Z,96369.16
2022-08-16T09:00:12.920Z,96364.59
2022-08-16T09:02:43.070Z,96370.31
2022-08-16T09:05:15.649Z,96363.19
2022-08-16T09:08:00.312Z,96357.59
2022-08-16T09:10:30.951Z,96350.25
2022-08-16T09:12:59.144Z,96356.63
2022-08-16T09:15:33.259Z,96360.00
2022-08-16T09:18:24.596Z,96356.22
2022-08-16T09:20:59.390Z,96359.94
2022-08-16T09:23:29.287Z,96365.47
2022-08-16T09:25:55.927Z,96374.00
2022-08-16T09:29:06.747Z,96358.50
2022-08-16T09:31:11.427Z,96364.13
2022-08-16T09:33:39.783Z,96367.03
2022-08-16T09:36:12.336Z,96365.69
2022-08-16T09:38:59.575Z,96370.97
2022-08-16T09:41:27.015Z,96366.56
2022-08-16T09:43:59.687Z,96365.75
2022-08-16T09:46:33.364Z,96366.22
2022-08-16T09:49:14.157Z,96363.75
2022-08-16T09:51:42.416Z,96358.44
2022-08-16T09:54:17.123Z,96356.97
2022-08-16T09:56:53.012Z,96352.22
2022-08-16T09:59:22.614Z,96353.00
2022-08-16T10:01:51.633Z,96348.69
2022-08-16T10:04:29.662Z,96337.34
2022-08-16T10:09:45.165Z,96339.72
2022-08-16T10:12:34.126Z,96329.00
2022-08-16T10:15:00.830Z,96327.47
2022-08-16T10:17:28.808Z,96347.06
2022-08-16T10:19:55.593Z,96339.41
2022-08-16T10:22:23.048Z,96353.13
2022-08-16T10:24:55.561Z,96343.50
2022-08-16T10:27:29.974Z,96334.16
2022-08-16T10:30:26.174Z,96339.13
2022-08-16T10:32:55.633Z,96342.03
2022-08-16T10:35:22.908Z,96341.50
2022-08-16T10:37:50.391Z,96336.88
2022-08-16T10:40:29.693Z,96338.16
2022-08-16T10:43:00.519Z,96336.47
2022-08-16T10:45:37.040Z,96336.31
2022-08-16T10:48:28.147Z,96329.13
2022-08-16T10:50:53.438Z,96332.84
2022-08-16T10:53:20.023Z,96328.75
2022-08-16T10:55:48.404Z,96321.59
2022-08-16T10:58:34.648Z,96326.19
2022-08-16T11:03:54.636Z,96326.19
2022-08-16T11:06:26.948Z,96322.84
2022-08-16T11:14:30.500Z,96328.84
2022-08-16T11:17:09.046Z,96335.97
2022-08-16T11:20:00.671Z,96338.16
2022-08-16T11:22:42.175Z,96324.06
2022-08-16T11:25:12.141Z,96335.03
2022-08-16T11:27:39.467Z,96331.09
2022-08-16T11:30:12.238Z,96325.47
2022-08-16T11:32:46.507Z,96332.34
2022-08-16T11:35:18.675Z,96334.06
2022-08-16T11:38:47.236Z,96327.66
2022-08-16T11:41:00.313Z,96329.97
2022-08-16T11:43:30.226Z,96331.78
2022-08-16T11:46:01.419Z,96323.22
2022-08-16T11:48:46.667Z,96319.81
2022-08-16T11:51:13.534Z,96318.41
2022-08-16T11:53:40.733Z,96312.16
2022-08-16T11:56:07.464Z,96312.63
2022-08-16T11:58:37.372Z,96313.56
2022-08-16T12:01:06.380Z,96325.69
2022-08-16T12:03:37.301Z,96323.00
2022-08-16T12:06:25.181Z,96318.34
2022-08-16T12:08:57.515Z,96311.88
2022-08-16T12:11:28.146Z,96313.19
2022-08-16T12:13:59.723Z,96310.00
2022-08-16T12:16:31.315Z,96316.06
2022-08-16T12:19:05.485Z,96316.78
2022-08-16T12:21:57.530Z,96310.50
2022-08-16T12:24:19.588Z,96295.03
2022-08-16T12:26:46.437Z,96311.16
2022-08-16T12:29:13.064Z,96302.28
2022-08-16T12:32:01.414Z,96308.28
2022-08-16T12:34:28.969Z,96307.81
2022-08-16T12:36:55.942Z,96310.75
2022-08-16T12:39:22.618Z,96306.97
2022-08-16T12:41:49.842Z,96311.09
2022-08-16T12:44:19.744Z,96309.06
2022-08-16T12:47:06.508Z,96297.63
2022-08-16T12:49:33.223Z,96300.47
2022-08-16T12:52:09.181Z,96296.53
2022-08-16T12:54:37.458Z,96307.34
2022-08-16T12:57:14.148Z,96301.28
2022-08-16T12:59:42.094Z,96306.38
2022-08-16T13:02:12.435Z,96310.25
2022-08-16T13:04:50.187Z,96302.06
2022-08-16T13:07:18.189Z,96286.78
2022-08-16T13:09:58.362Z,96272.91
2022-08-16T13:12:27.973Z,96277.38
2022-08-16T13:14:55.978Z,96285.97
2022-08-16T13:17:26.471Z,96283.13
2022-08-16T13:20:07.260Z,96286.41
2022-08-16T13:22:42.324Z,96280.22
2022-08-16T13:25:13.981Z,96295.50
2022-08-16T13:28:03.173Z,96283.66
2022-08-16T13:30:37.076Z,96289.44
2022-08-16T13:33:10.800Z,96289.06
2022-08-16T13:35:43.187Z,96298.13
2022-08-16T13:38:24.236Z,96295.84
2022-08-16T13:40:51.923Z,96296.44
2022-08-16T13:43:19.674Z,96304.00
2022-08-16T13:45:50.431Z,96305.09
2022-08-16T13:48:21.902Z,96302.78
2022-08-16T13:50:56.318Z,96307.75
2022-08-16T13:53:25.023Z,96297.69
2022-08-16T13:55:58.642Z,96295.81
2022-08-16T13:58:36.571Z,96289.06
2022-08-16T14:01:09.712Z,96295.00
2022-08-16T14:03:40.245Z,96293.88
2022-08-16T14:06:10.878Z,96300.38
2022-08-16T14:08:42.181Z,96293.63
2022-08-16T14:11:11.883Z,96291.84
2022-08-16T14:13:39.722Z,96290.25
2022-08-16T14:16:23.566Z,96298.78
2022-08-16T14:18:52.656Z,96299.94
2022-08-16T14:21:23.589Z,96295.31
2022-08-16T14:23:52.076Z,96296.38
2022-08-16T14:26:21.187Z,96302.91
2022-08-16T14:28:50.451Z,96289.28
2022-08-16T14:31:18.468Z,96294.53
2022-08-16T14:33:45.622Z,96288.47
2022-08-16T14:36:18.500Z,96297.56
2022-08-16T14:38:51.822Z,96291.84
2022-08-16T14:41:18.703Z,96290.66
2022-08-16T14:43:45.357Z,96286.81
2022-08-16T14:46:12.117Z,96282.78
2022-08-16T14:48:39.119Z,96297.81
2022-08-16T14:51:05.952Z,96282.41
2022-08-16T14:53:33.532Z,96285.00
2022-08-16T14:56:00.654Z,96286.38
2022-08-16T14:58:34.857Z,96283.06
2022-08-16T15:01:03.537Z,96281.31
2022-08-16T15:03:30.267Z,96283.34
2022-08-16T15:06:00.511Z,96273.53
2022-08-16T15:08:36.805Z,96277.28
2022-08-16T15:11:05.424Z,96280.94
2022-08-16T15:13:32.352Z,96268.22
2022-08-16T15:16:02.556Z,96276.81
2022-08-16T15:18:31.933Z,96281.66
2022-08-16T15:21:04.286Z,96276.53
2022-08-16T15:23:33.956Z,96274.34
2022-08-16T15:26:03.876Z,96275.91
2022-08-16T15:28:32.718Z,96273.06
2022-08-16T15:31:06.250Z,96276.97
2022-08-16T15:33:39.221Z,96272.97
2022-08-16T15:36:12.255Z,96283.16
2022-08-16T15:39:02.748Z,96279.25
2022-08-16T15:41:48.644Z,96279.84
2022-08-16T15:44:22.136Z,96270.47
2022-08-16T15:46:56.618Z,96265.56
2022-08-16T15:49:37.296Z,96265.28
2022-08-16T15:52:16.157Z,96272.88
2022-08-16T15:54:52.984Z,96263.00
2022-08-16T15:57:24.406Z,96266.56
2022-08-16T15:59:56.427Z,96267.25
2022-08-16T16:02:33.499Z,96264.72
2022-08-16T16:05:04.398Z,96268.88
2022-08-16T16:07:33.425Z,96268.22
2022-08-16T16:10:03.791Z,96266.34
2022-08-16T16:12:53.449Z,96273.75
2022-08-16T16:15:20.343Z,96268.97
2022-08-16T16:17:51.002Z,96273.34
2022-08-16T16:20:20.333Z,96273.75
2022-08-16T16:22:49.937Z,96267.75
2022-08-16T16:25:17.637Z,96271.06
2022-08-16T16:27:45.330Z,96264.88
2022-08-16T16:30:37.875Z,96271.09
2022-08-16T16:33:02.337Z,96264.19
2022-08-16T16:35:32.637Z,96267.78
2022-08-16T16:37:59.967Z,96268.41
2022-08-16T16:40:32.480Z,96263.97
2022-08-16T16:43:00.282Z,96261.34
2022-08-16T16:45:34.710Z,96269.69
2022-08-16T16:48:11.840Z,96274.28
2022-08-16T16:50:44.407Z,96274.94
2022-08-16T16:53:16.747Z,96273.38
2022-08-16T16:55:43.821Z,96281.00
2022-08-16T16:58:38.375Z,96276.66
2022-08-16T17:01:05.730Z,96275.84
2022-08-16T17:03:33.893Z,96272.34
2022-08-16T17:06:02.798Z,96270.13
2022-08-16T17:08:37.811Z,96272.16
2022-08-16T17:11:08.154Z,96282.41
2022-08-16T17:13:35.205Z,96282.72
2022-08-16T17:16:04.456Z,96280.22
2022-08-16T17:19:16.793Z,96285.22
2022-08-16T17:21:18.939Z,96285.28
2022-08-16T17:23:58.257Z,96277.28
2022-08-16T17:26:30.255Z,96276.59
2022-08-16T17:29:02.422Z,96282.19
2022-08-16T17:31:41.150Z,96279.50
2022-08-16T17:34:29.362Z,96277.28
2022-08-16T17:36:59.782Z,96278.28
2022-08-16T17:39:29.549Z,96287.16
2022-08-16T17:42:00.956Z,96287.44
2022-08-16T17:44:27.801Z,96298.22
2022-08-16T17:46:54.527Z,96300.25
2022-08-16T17:49:21.817Z,96297.75
2022-08-16T17:51:48.877Z,96304.47
2022-08-16T17:54:29.758Z,96301.28
2022-08-16T17:57:00.528Z,96298.34
2022-08-16T17:59:28.602Z,96298.13
2022-08-16T18:01:56.108Z,96297.84
2022-08-16T18:04:49.120Z,96300.91
2022-08-16T18:07:11.294Z,96304.34
2022-08-16T18:09:40.973Z,96301.78
2022-08-16T18:12:54.238Z,96305.91
2022-08-16T18:15:08.090Z,96313.25
2022-08-16T18:17:34.893Z,96305.31
2022-08-16T18:20:01.824Z,96312.09
2022-08-16T18:22:33.793Z,96319.13
2022-08-16T18:25:00.960Z,96304.53
2022-08-16T18:27:29.711Z,96321.34
2022-08-16T18:29:56.349Z,96328.41
2022-08-16T18:32:25.134Z,96332.56
2022-08-16T18:34:54.624Z,96325.75
2022-08-16T18:37:25.141Z,96327.06
2022-08-16T18:39:52.196Z,96326.34
2022-08-16T18:42:18.885Z,96321.06
2022-08-16T18:44:46.105Z,96329.31
2022-08-16T18:47:12.733Z,96333.75
2022-08-16T18:49:39.449Z,96335.78
2022-08-16T18:52:06.336Z,96338.25
2022-08-16T18:54:34.258Z,96338.44
2022-08-16T18:57:20.857Z,96341.16
2022-08-16T18:59:47.560Z,96340.59
2022-08-16T19:02:43.015Z,96344.94
2022-08-16T19:05:14.200Z,96345.56
2022-08-16T19:07:41.130Z,96339.63
2022-08-16T19:10:08.680Z,96339.94
2022-08-16T19:12:38.272Z,96349.88
2022-08-16T19:15:13.731Z,96343.97
2022-08-16T19:17:41.413Z,96351.50
2022-08-16T19:20:10.741Z,96352.63
2022-08-16T19:23:02.340Z,96354.59
2022-08-16T19:25:46.308Z,96353.22
2022-08-16T19:28:49.051Z,96363.19
2022-08-16T19:31:02.790Z,96368.31
2022-08-16T19:33:30.174Z,96368.31
2022-08-16T19:35:56.795Z,96369.13
2022-08-16T19:38:23.453Z,96367.78
2022-08-16T19:40:50.544Z,96373.16
2022-08-16T19:43:17.448Z,96371.28
2022-08-16T19:45:46.354Z,96377.47
2022-08-16T19:48:13.122Z,96377.19
2022-08-16T19:50:39.938Z,96382.28
2022-08-16T19:53:13.111Z,96378.53
2022-08-16T19:55:47.222Z,96383.88
2022-08-16T19:58:18.465Z,96386.78
2022-08-16T20:00:47.126Z,96388.88
2022-08-16T20:03:21.500Z,96398.81
2022-08-16T20:05:50.464Z,96390.50
2022-08-16T20:08:18.655Z,96398.28
2022-08-16T20:10:47.051Z,96394.50
2022-08-16T20:13:23.259Z,96396.66
2022-08-16T20:15:50.690Z,96401.94
2022-08-16T20:18:25.102Z,96405.66
2022-08-16T20:20:52.952Z,96404.56
2022-08-16T20:23:24.570Z,96409.41
2022-08-16T20:25:55.984Z,96417.44
2022-08-16T20:28:39.396Z,96413.31
2022-08-16T20:31:11.520Z,96405.53
2022-08-16T20:33:38.161Z,96413.50
2022-08-16T20:36:04.881Z,96425.47
2022-08-16T20:38:31.683Z,96426.56
2022-08-16T20:40:58.358Z,96427.31
2022-08-16T20:43:24.933Z,96422.09
2022-08-16T20:45:51.558Z,96423.59
2022-08-16T20:48:18.340Z,96426.34
2022-08-16T20:50:45.310Z,96429.56
2022-08-16T20:53:12.158Z,96425.47
2022-08-16T20:55:40.430Z,96426.31
2022-08-16T20:58:07.335Z,96431.25
2022-08-16T21:00:33.999Z,96430.19
2022-08-16T21:03:06.167Z,96437.13
2022-08-16T21:05:34.197Z,96436.50
2022-08-16T21:08:01.199Z,96441.25
2022-08-16T21:10:27.938Z,96437.66
2022-08-16T21:13:02.859Z,96439.72
2022-08-16T21:15:32.293Z,96438.75
2022-08-16T21:18:00.405Z,96444.41
2022-08-16T21:20:28.065Z,96442.03
2022-08-16T21:23:02.025Z,96444.44
2022-08-16T21:25:29.131Z,96446.13
2022-08-16T21:28:39.106Z,96444.75
2022-08-16T21:30:44.518Z,96444.00
2022-08-16T21:33:17.009Z,96450.28
2022-08-16T21:35:46.956Z,96443.88
2022-08-16T21:38:29.320Z,96447.94
2022-08-16T21:41:01.635Z,96443.06
2022-08-16T21:43:32.207Z,96439.66
2022-08-16T21:46:03.414Z,96443.63
2022-08-16T21:48:33.629Z,96445.31
2022-08-16T21:51:07.362Z,96439.84
2022-08-16T21:53:34.840Z,96442.31
2022-08-16T21:56:02.530Z,96452.06
2022-08-16T21:58:30.401Z,96455.13
2022-08-16T22:00:57.537Z,96461.22
2022-08-16T22:03:24.721Z,96455.63
2022-08-16T22:05:59.983Z,96450.81
2022-08-16T22:08:48.087Z,96451.91
2022-08-16T22:11:17.206Z,96450.16
2022-08-16T22:13:51.218Z,96450.47
2022-08-16T22:16:26.351Z,96453.94
2022-08-16T22:18:53.068Z,96452.41
2022-08-16T22:21:20.323Z,96455.22
2022-08-16T22:23:57.356Z,96448.38
2022-08-16T22:26:34.073Z,96455.44
2022-08-16T22:29:09.620Z,96461.75
2022-08-16T22:31:37.787Z,96455.59
2022-08-16T22:34:04.792Z,96457.78
2022-08-16T22:36:32.950Z,96448.50
2022-08-16T22:39:02.888Z,96450.88
2022-08-16T22:41:31.999Z,96452.59
2022-08-16T22:43:59.529Z,96455.66
2022-08-16T22:46:26.663Z,96455.75
2022-08-16T22:48:54.270Z,96461.66
2022-08-16T22:51:23.528Z,96449.56
2022-08-16T22:53:50.927Z,96456.34
2022-08-16T22:56:17.971Z,96462.06
2022-08-16T22:58:46.280Z,96452.75
2022-08-16T23:01:15.164Z,96458.13
2022-08-16T23:03:42.377Z,96449.97
2022-08-16T23:06:10.571Z,96449.50
2022-08-16T23:08:40.795Z,96450.28
2022-08-16T23:11:10.647Z,96451.50
2022-08-16T23:13:37.807Z,96451.84
2022-08-16T23:16:20.622Z,96448.34
2022-08-16T23:18:49.531Z,96449.41
2022-08-16T23:21:17.650Z,96439.13
2022-08-16T23:26:43.761Z,96430.69
2022-08-16T23:29:04.395Z,96437.63
2022-08-16T23:31:32.683Z,96434.09
2022-08-16T23:34:00.394Z,96437.81
2022-08-16T23:36:27.008Z,96437.50
2022-08-16T23:38:53.745Z,96429.72
2022-08-16T23:41:20.415Z,96441.06
2022-08-16T23:43:47.135Z,96435.50
2022-08-16T23:46:17.981Z,96427.06
2022-08-16T23:49:55.847Z,96427.34
2022-08-16T23:51:32.573Z,96433.59
2022-08-16T23:54:00.114Z,96434.13
2022-08-16T23:56:26.753Z,96424.19
2022-08-16T23:59:02.954Z,96421.19
